Time;durP1;ratioP1;P1;durP2;ratioP2;P2;SDS_P1;SDS_P2;PMS_P1;PMS_P2;Temp;Humidity;BMP_temperature;BMP_pressure;BME280_temperature;BME280_humidity;BME280_pressure;Samples;Min_cycle;Max_cycle;Signal;HPM_P1;HPM_P2
2022/07/10 00:01:32;;;;;;;2.92;0.60;;;28.60;35.40;;;;;;5073742;28;20507;-60
2022/07/10 00:03:59;;;;;;;1.60;0.32;;;28.60;35.50;;;;;;5074506;28;20123;-60
2022/07/10 00:06:26;;;;;;;0.70;0.00;;;28.60;35.60;;;;;;5077804;28;20079;-60
2022/07/10 00:08:55;;;;;;;0.30;0.10;;;28.60;35.70;;;;;;5069138;28;20045;-59
2022/07/10 00:11:23;;;;;;;0.65;0.10;;;28.50;35.70;;;;;;5075919;28;20566;-59
2022/07/10 00:13:50;;;;;;;1.30;0.08;;;28.50;35.70;;;;;;5054386;28;20047;-60
2022/07/10 00:16:17;;;;;;;1.00;0.10;;;28.50;35.80;;;;;;5071940;28;20148;-60
2022/07/10 00:18:44;;;;;;;1.40;0.15;;;28.40;35.70;;;;;;5077700;28;20044;-59
2022/07/10 00:21:11;;;;;;;1.52;0.10;;;28.40;36.50;;;;;;5074669;28;20041;-59
2022/07/10 00:23:38;;;;;;;0.30;0.00;;;28.30;35.90;;;;;;5071212;28;20050;-59
2022/07/10 00:26:05;;;;;;;1.88;0.40;;;28.30;36.10;;;;;;5072315;28;20291;-59
2022/07/10 00:28:34;;;;;;;0.75;0.20;;;28.30;36.10;;;;;;5082712;28;20538;-60
2022/07/10 00:31:01;;;;;;;0.35;0.17;;;28.20;36.10;;;;;;5080982;28;20142;-59
2022/07/10 00:33:28;;;;;;;1.67;0.70;;;28.20;36.30;;;;;;5075237;28;20580;-59
2022/07/10 00:35:55;;;;;;;3.67;0.17;;;28.20;36.30;;;;;;5073158;28;20040;-59
2022/07/10 00:38:22;;;;;;;0.73;0.20;;;28.20;36.50;;;;;;5081137;28;20512;-60
2022/07/10 00:40:49;;;;;;;1.85;0.52;;;28.10;36.40;;;;;;5072899;28;20068;-59
2022/07/10 00:43:16;;;;;;;1.30;0.63;;;28.10;36.40;;;;;;5077049;28;20041;-60
2022/07/10 00:45:44;;;;;;;2.90;0.30;;;28.10;36.50;;;;;;5074413;28;20487;-60
2022/07/10 00:48:11;;;;;;;3.78;0.38;;;28.00;36.60;;;;;;5080342;28;20040;-60
2022/07/10 00:50:39;;;;;;;0.70;0.10;;;28.00;36.70;;;;;;5075936;28;20040;-59
2022/07/10 00:53:06;;;;;;;0.57;0.10;;;28.00;36.80;;;;;;5083825;28;20039;-60
2022/07/10 00:55:35;;;;;;;0.93;0.10;;;27.90;36.80;;;;;;5076416;28;20106;-59
2022/07/10 00:58:02;;;;;;;1.20;0.10;;;27.90;37.60;;;;;;5081298;28;20067;-59
2022/07/10 01:00:30;;;;;;;3.20;0.10;;;27.90;37.00;;;;;;5077407;28;20032;-60
2022/07/10 01:02:59;;;;;;;1.17;0.10;;;27.90;37.10;;;;;;5077651;28;20048;-61
2022/07/10 01:05:26;;;;;;;1.38;0.10;;;27.80;37.10;;;;;;5068952;28;20056;-60
2022/07/10 01:07:53;;;;;;;2.00;0.10;;;27.80;37.20;;;;;;5074810;28;20511;-60
2022/07/10 01:10:20;;;;;;;1.40;0.10;;;27.80;37.20;;;;;;5083685;28;20045;-60
2022/07/10 01:12:48;;;;;;;3.17;0.10;;;27.80;37.30;;;;;;5077271;28;20050;-60
2022/07/10 01:15:15;;;;;;;1.42;0.10;;;27.80;37.30;;;;;;5088555;28;20036;-60
2022/07/10 01:17:42;;;;;;;0.77;0.10;;;27.70;37.30;;;;;;5058788;28;20039;-60
2022/07/10 01:20:12;;;;;;;1.75;0.30;;;27.70;37.30;;;;;;5070058;28;20089;-60
2022/07/10 01:22:40;;;;;;;1.95;0.17;;;27.70;37.30;;;;;;5078272;28;20046;-59
2022/07/10 01:25:08;;;;;;;0.52;0.20;;;27.70;37.30;;;;;;5075569;28;20497;-60
2022/07/10 01:27:35;;;;;;;0.17;0.10;;;27.60;37.30;;;;;;5077237;28;20032;-60
2022/07/10 01:30:02;;;;;;;4.05;0.50;;;27.60;37.40;;;;;;5079508;28;20036;-59
2022/07/10 01:32:37;;;;;;;4.05;0.10;;;27.60;37.50;;;;;;5074511;28;20131;-60
2022/07/10 01:35:05;;;;;;;2.05;0.10;;;27.60;37.50;;;;;;5077249;28;20096;-60
2022/07/10 01:37:32;;;;;;;0.95;0.10;;;27.60;37.60;;;;;;5075146;28;20044;-60
2022/07/10 01:40:00;;;;;;;1.17;0.30;;;27.50;37.60;;;;;;5084965;28;20119;-59
2022/07/10 01:42:27;;;;;;;0.70;0.10;;;27.50;37.60;;;;;;5079469;28;20141;-60
2022/07/10 01:44:54;;;;;;;2.38;0.10;;;27.50;37.60;;;;;;5076742;28;20118;-60
2022/07/10 01:47:24;;;;;;;0.20;0.05;;;27.50;37.60;;;;;;5068233;28;20512;-60
2022/07/10 01:49:52;;;;;;;0.65;0.10;;;27.50;37.70;;;;;;5074579;28;20049;-60
2022/07/10 01:52:19;;;;;;;1.05;0.20;;;27.50;37.80;;;;;;5078720;28;20044;-60
2022/07/10 01:54:46;;;;;;;0.82;0.20;;;27.50;37.80;;;;;;5076580;28;20211;-60
2022/07/10 01:57:15;;;;;;;1.67;0.20;;;27.40;37.80;;;;;;5087208;28;20032;-60
2022/07/10 01:59:42;;;;;;;1.25;0.10;;;27.40;37.80;;;;;;5086724;28;20062;-60
2022/07/10 02:02:09;;;;;;;1.05;0.10;;;27.40;37.90;;;;;;5068016;28;20037;-60
2022/07/10 02:04:42;;;;;;;1.30;0.43;;;27.30;37.90;;;;;;5072632;28;20051;-57
2022/07/10 02:07:09;;;;;;;1.40;0.25;;;27.40;38.00;;;;;;5074105;28;20049;-60
2022/07/10 02:09:37;;;;;;;0.63;0.00;;;27.30;37.90;;;;;;5076082;28;20041;-60
2022/07/10 02:12:05;;;;;;;0.63;0.15;;;27.30;38.00;;;;;;5076732;28;20048;-60
2022/07/10 02:14:33;;;;;;;1.02;0.40;;;27.30;37.90;;;;;;5073766;28;20497;-60
2022/07/10 02:17:00;;;;;;;0.43;0.10;;;27.30;37.80;;;;;;5076174;28;20135;-61
2022/07/10 02:19:28;;;;;;;2.55;0.43;;;27.20;37.80;;;;;;5074551;28;20143;-59
2022/07/10 02:21:55;;;;;;;3.30;0.10;;;27.20;37.90;;;;;;5071460;28;20033;-60
2022/07/10 02:24:22;;;;;;;0.95;0.10;;;27.20;38.00;;;;;;5080114;28;20493;-60
2022/07/10 02:26:49;;;;;;;0.52;0.10;;;27.20;38.10;;;;;;5077799;28;20044;-59
2022/07/10 02:29:17;;;;;;;3.17;0.40;;;27.10;38.10;;;;;;5072444;28;20039;-60
2022/07/10 02:31:45;;;;;;;2.63;0.20;;;27.20;38.10;;;;;;5080613;28;20451;-59
2022/07/10 02:34:14;;;;;;;0.32;0.25;;;27.10;38.20;;;;;;5080204;28;20032;-59
2022/07/10 02:36:41;;;;;;;2.38;0.10;;;27.10;38.10;;;;;;5076095;28;20119;-59
2022/07/10 02:39:09;;;;;;;0.20;0.10;;;27.10;38.10;;;;;;5079151;28;20040;-60
2022/07/10 02:41:36;;;;;;;1.40;0.17;;;27.10;38.20;;;;;;5073247;28;20036;-60
2022/07/10 02:44:04;;;;;;;0.10;0.10;;;27.10;38.30;;;;;;5087189;28;20056;-59
2022/07/10 02:46:31;;;;;;;0.90;0.10;;;27.10;38.30;;;;;;5076616;28;20128;-60
2022/07/10 02:48:59;;;;;;;2.65;0.10;;;27.10;38.40;;;;;;5080221;28;20101;-60
2022/07/10 02:51:26;;;;;;;0.70;0.10;;;27.00;38.30;;;;;;5071802;28;20469;-59
2022/07/10 02:53:53;;;;;;;2.20;0.13;;;27.00;38.30;;;;;;5081806;28;20043;-60
2022/07/10 02:56:20;;;;;;;0.10;0.10;;;27.00;38.40;;;;;;5073462;28;20036;-60
2022/07/10 02:58:47;;;;;;;0.88;0.10;;;27.00;38.40;;;;;;5063223;28;20050;-61
2022/07/10 03:01:14;;;;;;;0.93;0.10;;;27.00;38.50;;;;;;5075160;28;20044;-60
2022/07/10 03:03:41;;;;;;;0.85;0.10;;;26.90;38.50;;;;;;5078354;28;20493;-60
2022/07/10 03:06:10;;;;;;;1.95;0.10;;;26.90;38.50;;;;;;5071052;28;20047;-61
2022/07/10 03:08:37;;;;;;;2.53;0.20;;;26.90;38.50;;;;;;5060390;28;20036;-58
2022/07/10 03:11:04;;;;;;;1.48;0.10;;;26.90;38.50;;;;;;5053411;28;20497;-60
2022/07/10 03:13:31;;;;;;;1.20;0.10;;;26.90;38.50;;;;;;5077288;28;20036;-60
2022/07/10 03:15:58;;;;;;;0.82;0.35;;;26.90;38.50;;;;;;5074426;28;20044;-58
2022/07/10 03:18:25;;;;;;;1.35;0.10;;;26.90;38.60;;;;;;5061021;28;20480;-60
2022/07/10 03:20:52;;;;;;;0.82;0.10;;;26.90;38.60;;;;;;5068142;28;20547;-60
2022/07/10 03:23:20;;;;;;;1.08;0.22;;;26.80;38.50;;;;;;5079189;28;20058;-59
2022/07/10 03:25:47;;;;;;;2.72;0.10;;;26.90;38.60;;;;;;5077478;28;20056;-59
2022/07/10 03:28:15;;;;;;;0.10;0.10;;;26.80;38.50;;;;;;5075299;28;20043;-59
2022/07/10 03:30:42;;;;;;;2.92;0.15;;;26.80;38.40;;;;;;5081980;28;20130;-59
2022/07/10 03:33:09;;;;;;;0.70;0.10;;;26.80;38.50;;;;;;5075608;28;20032;-59
2022/07/10 03:35:36;;;;;;;1.63;0.10;;;26.80;38.50;;;;;;5074014;28;20563;-59
2022/07/10 03:38:03;;;;;;;0.50;0.10;;;26.80;38.50;;;;;;5070155;28;20059;-59
2022/07/10 03:40:32;;;;;;;1.88;0.63;;;26.80;38.50;;;;;;5063189;28;20107;-59
2022/07/10 03:42:59;;;;;;;0.25;0.10;;;26.80;38.50;;;;;;5074825;28;20068;-59
2022/07/10 03:45:26;;;;;;;0.25;0.10;;;26.80;38.60;;;;;;5059017;28;20523;-59
2022/07/10 03:47:53;;;;;;;2.50;0.10;;;26.70;38.50;;;;;;5072369;28;20089;-59
2022/07/10 03:50:20;;;;;;;0.57;0.43;;;26.70;38.50;;;;;;5075620;28;20040;-60
2022/07/10 03:52:47;;;;;;;0.95;0.10;;;26.70;38.60;;;;;;5075795;28;20587;-59
2022/07/10 03:55:14;;;;;;;3.55;0.10;;;26.70;38.70;;;;;;5076726;28;20064;-60
2022/07/10 03:57:54;;;;;;;0.55;0.05;;;26.70;38.70;;;;;;5073739;28;20040;-60
2022/07/10 04:00:22;;;;;;;1.83;0.13;;;26.70;38.70;;;;;;5076303;28;20056;-60
2022/07/10 04:02:55;;;;;;;3.63;0.10;;;26.70;38.70;;;;;;5075341;28;20048;-59
2022/07/10 04:05:22;;;;;;;0.35;0.10;;;26.70;38.80;;;;;;5073019;28;20035;-60
2022/07/10 04:07:49;;;;;;;3.47;0.10;;;26.70;38.80;;;;;;5073790;28;20094;-59
2022/07/10 04:10:16;;;;;;;0.47;0.10;;;26.70;38.80;;;;;;5078718;28;20055;-60
2022/07/10 04:12:45;;;;;;;1.17;0.55;;;26.60;38.70;;;;;;5078505;28;20420;-59
2022/07/10 04:15:12;;;;;;;0.43;0.10;;;26.70;38.70;;;;;;5071863;28;20071;-60
2022/07/10 04:17:40;;;;;;;1.38;0.73;;;26.60;38.70;;;;;;5079343;28;20040;-59
2022/07/10 04:20:08;;;;;;;2.28;0.10;;;26.60;38.70;;;;;;5072453;28;20129;-58
2022/07/10 04:22:35;;;;;;;1.42;0.13;;;26.60;38.70;;;;;;5083305;28;20483;-59
2022/07/10 04:25:03;;;;;;;2.67;0.90;;;26.60;38.70;;;;;;5087633;28;20040;-60
2022/07/10 04:27:31;;;;;;;0.77;0.40;;;26.60;38.70;;;;;;5084342;28;20036;-60
2022/07/10 04:29:59;;;;;;;0.20;0.10;;;26.60;38.70;;;;;;5066159;28;20060;-58
2022/07/10 04:32:27;;;;;;;2.70;0.80;;;26.60;38.80;;;;;;5084856;28;20040;-60
2022/07/10 04:34:54;;;;;;;1.60;0.85;;;26.60;38.80;;;;;;5073969;28;20169;-60
2022/07/10 04:37:21;;;;;;;0.35;0.10;;;26.60;38.90;;;;;;5074927;28;20497;-59
2022/07/10 04:39:48;;;;;;;2.30;0.28;;;26.50;38.80;;;;;;5083004;28;20740;-60
2022/07/10 04:42:15;;;;;;;1.98;0.10;;;26.50;38.80;;;;;;5076926;28;20047;-60
2022/07/10 04:44:43;;;;;;;2.78;0.17;;;26.50;38.80;;;;;;5076637;28;20043;-59
2022/07/10 04:47:12;;;;;;;0.60;0.20;;;26.50;39.40;;;;;;5074103;28;20071;-60
2022/07/10 04:49:39;;;;;;;1.00;0.10;;;26.50;38.80;;;;;;5083827;28;20102;-60
2022/07/10 04:52:07;;;;;;;0.13;0.10;;;26.50;38.90;;;;;;5080327;28;20048;-60
2022/07/10 04:54:34;;;;;;;1.52;0.15;;;26.50;38.90;;;;;;5086109;28;20500;-60
2022/07/10 04:57:01;;;;;;;1.48;0.20;;;26.50;38.90;;;;;;5078441;28;20115;-60
2022/07/10 04:59:28;;;;;;;1.17;0.10;;;26.50;39.00;;;;;;5079255;28;20155;-60
2022/07/10 05:01:55;;;;;;;0.47;0.30;;;26.50;39.00;;;;;;5085610;28;20048;-59
2022/07/10 05:04:24;;;;;;;1.58;0.60;;;26.50;39.00;;;;;;5083293;28;20040;-59
2022/07/10 05:06:51;;;;;;;1.85;0.10;;;26.50;39.00;;;;;;5083537;28;20048;-59
2022/07/10 05:09:19;;;;;;;2.58;0.10;;;26.50;39.10;;;;;;5078877;28;20051;-58
2022/07/10 05:11:46;;;;;;;3.45;0.30;;;26.50;39.10;;;;;;5064823;28;20067;-60
2022/07/10 05:14:13;;;;;;;1.88;0.20;;;26.50;39.10;;;;;;5066951;28;20051;-59
2022/07/10 05:16:40;;;;;;;1.13;0.25;;;26.40;39.10;;;;;;5087085;28;20512;-59
2022/07/10 05:19:07;;;;;;;0.60;0.10;;;26.50;39.20;;;;;;5081164;28;20036;-59
2022/07/10 05:21:36;;;;;;;2.50;0.15;;;26.40;39.10;;;;;;5082618;28;20063;-59
2022/07/10 05:24:03;;;;;;;0.28;0.15;;;26.50;39.20;;;;;;5084148;28;20044;-59
2022/07/10 05:26:30;;;;;;;0.68;0.10;;;26.40;39.20;;;;;;5083513;28;20516;-59
2022/07/10 05:28:57;;;;;;;0.30;0.10;;;26.40;39.10;;;;;;5085125;28;20046;-59
2022/07/10 05:31:24;;;;;;;2.10;0.35;;;26.40;39.10;;;;;;5095212;28;20462;-59
2022/07/10 05:33:51;;;;;;;18.67;0.43;;;26.40;39.70;;;;;;5083250;28;20122;-64
2022/07/10 05:36:18;;;;;;;1.45;0.10;;;26.40;38.80;;;;;;5078070;28;20500;-58
2022/07/10 05:38:47;;;;;;;0.82;0.10;;;26.40;38.80;;;;;;5088872;28;20075;-62
2022/07/10 05:41:14;;;;;;;4.57;0.10;;;26.50;38.60;;;;;;5092896;28;20052;-64
2022/07/10 05:43:41;;;;;;;1.45;0.10;;;26.70;38.60;;;;;;5085807;28;20119;-65
2022/07/10 05:46:08;;;;;;;1.65;0.10;;;27.10;38.30;;;;;;5081006;28;20511;-63
2022/07/10 05:48:35;;;;;;;0.73;0.00;;;27.50;37.90;;;;;;5064421;28;20393;-64
2022/07/10 05:51:03;;;;;;;0.73;0.30;;;28.00;37.30;;;;;;5078777;28;20048;-69
2022/07/10 05:53:30;;;;;;;3.90;0.10;;;28.40;36.70;;;;;;5081415;28;20035;-71
2022/07/10 05:56:02;;;;;;;3.40;0.10;;;28.90;35.90;;;;;;5077932;28;20504;-68
2022/07/10 05:58:29;;;;;;;1.50;0.10;;;29.40;35.40;;;;;;5081926;28;20390;-65
2022/07/10 06:00:56;;;;;;;0.63;0.10;;;29.80;34.60;;;;;;5081008;28;20046;-67
2022/07/10 06:03:24;;;;;;;0.52;0.10;;;30.30;34.20;;;;;;5078920;28;20102;-66
2022/07/10 06:05:51;;;;;;;0.90;0.57;;;30.70;33.60;;;;;;5075747;28;20064;-56
2022/07/10 06:08:18;;;;;;;0.60;0.10;;;31.10;33.20;;;;;;5059964;28;20449;-62
2022/07/10 06:10:45;;;;;;;1.52;0.10;;;31.50;32.70;;;;;;5082608;28;20159;-61
2022/07/10 06:13:14;;;;;;;0.70;0.20;;;31.90;32.70;;;;;;5085633;28;20749;-61
2022/07/10 06:15:41;;;;;;;1.00;0.10;;;32.20;31.60;;;;;;5077461;28;20060;-56
2022/07/10 06:18:08;;;;;;;0.32;0.10;;;32.50;31.10;;;;;;5060006;28;20089;-60
2022/07/10 06:20:35;;;;;;;0.50;0.13;;;32.80;30.80;;;;;;5078133;28;20044;-51
2022/07/10 06:23:02;;;;;;;0.85;0.10;;;33.00;30.50;;;;;;5081150;28;20493;-58
2022/07/10 06:25:29;;;;;;;1.38;0.20;;;33.20;30.90;;;;;;5061663;28;20123;-58
2022/07/10 06:27:56;;;;;;;0.10;0.10;;;33.30;30.70;;;;;;5082150;28;20127;-59
2022/07/10 06:30:25;;;;;;;0.25;0.10;;;33.50;30.50;;;;;;5073503;28;20793;-58
2022/07/10 06:32:52;;;;;;;1.95;0.20;;;33.70;30.30;;;;;;5079443;28;20046;-56
2022/07/10 06:35:19;;;;;;;0.10;0.10;;;33.80;30.00;;;;;;5074224;28;20044;-58
2022/07/10 06:37:46;;;;;;;1.35;0.10;;;33.90;29.90;;;;;;5080500;28;20105;-60
2022/07/10 06:40:15;;;;;;;2.10;0.10;;;34.10;29.80;;;;;;5082836;28;20047;-61
2022/07/10 06:42:42;;;;;;;1.08;0.63;;;34.20;29.70;;;;;;5080754;28;20456;-61
2022/07/10 06:45:11;;;;;;;0.20;0.10;;;34.30;29.60;;;;;;5062298;28;20128;-59
2022/07/10 06:47:59;;;;;;;0.30;0.10;;;34.40;29.40;;;;;;5077781;28;20044;-55
2022/07/10 06:50:29;;;;;;;1.40;0.20;;;34.60;29.30;;;;;;5060095;28;20425;-57
2022/07/10 06:52:56;;;;;;;1.33;0.10;;;34.70;29.20;;;;;;5078805;28;20121;-63
2022/07/10 06:55:24;;;;;;;0.75;0.65;;;34.80;29.10;;;;;;5076092;28;20032;-62
2022/07/10 06:57:52;;;;;;;0.70;0.10;;;34.90;29.10;;;;;;5078412;28;20040;-60
2022/07/10 07:00:19;;;;;;;0.88;0.22;;;34.90;29.00;;;;;;5077403;28;20408;-63
2022/07/10 07:02:47;;;;;;;3.33;0.80;;;35.00;28.90;;;;;;5078676;28;20115;-62
2022/07/10 07:05:15;;;;;;;2.45;0.10;;;35.00;29.00;;;;;;5080043;28;20075;-62
2022/07/10 07:07:42;;;;;;;0.20;0.10;;;35.00;28.80;;;;;;5077582;28;20040;-61
2022/07/10 07:10:10;;;;;;;6.80;0.57;;;35.10;28.80;;;;;;5082248;28;20040;-60
2022/07/10 07:12:37;;;;;;;1.08;0.38;;;35.10;28.70;;;;;;5078642;28;20428;-53
2022/07/10 07:15:06;;;;;;;1.27;0.10;;;35.00;28.70;;;;;;5081554;28;20047;-55
2022/07/10 07:17:46;;;;;;;0.80;0.40;;;35.00;28.80;;;;;;5077702;28;20534;-66
2022/07/10 07:23:11;;;;;;;3.75;0.80;;;35.10;28.70;;;;;;5078488;28;20040;-51
2022/07/10 07:25:40;;;;;;;3.72;0.63;;;35.10;28.60;;;;;;5081046;28;20044;-53
2022/07/10 07:28:07;;;;;;;2.40;0.30;;;35.10;28.60;;;;;;5081928;28;20044;-61
2022/07/10 07:30:34;;;;;;;1.50;0.75;;;35.20;28.60;;;;;;5076830;28;20055;-56
2022/07/10 07:33:01;;;;;;;0.85;0.10;;;35.30;28.50;;;;;;5077496;28;20504;-59
2022/07/10 07:35:30;;;;;;;0.10;0.10;;;35.30;28.40;;;;;;5076461;28;20067;-64
2022/07/10 07:37:57;;;;;;;0.95;0.10;;;35.40;28.30;;;;;;5078182;28;20118;-61
2022/07/10 07:40:24;;;;;;;1.13;0.55;;;35.40;28.30;;;;;;5079068;28;20131;-57
2022/07/10 07:42:53;;;;;;;0.20;0.10;;;35.40;28.20;;;;;;5077942;28;20041;-55
2022/07/10 07:45:20;;;;;;;0.82;0.32;;;35.10;28.20;;;;;;5074071;28;20044;-63
2022/07/10 07:47:49;;;;;;;0.88;0.10;;;34.80;28.40;;;;;;5080527;28;20067;-56
2022/07/10 07:50:17;;;;;;;4.88;0.10;;;34.50;28.60;;;;;;5072537;28;20101;-63
2022/07/10 07:52:46;;;;;;;1.63;0.40;;;34.20;28.80;;;;;;5081718;28;20054;-68
2022/07/10 07:55:15;;;;;;;1.27;0.10;;;33.80;29.00;;;;;;5084366;28;20521;-59
2022/07/10 07:57:42;;;;;;;0.52;0.52;;;33.50;29.20;;;;;;5082356;28;20040;-57
2022/07/10 08:00:11;;;;;;;0.80;0.17;;;33.20;29.40;;;;;;5081350;28;20151;-60
2022/07/10 08:02:42;;;;;;;0.90;0.30;;;32.90;29.50;;;;;;5081066;28;20032;-61
2022/07/10 08:05:10;;;;;;;0.35;0.10;;;32.70;29.80;;;;;;5082956;28;20054;-60
2022/07/10 08:07:39;;;;;;;0.20;0.10;;;32.40;29.90;;;;;;5078927;28;20032;-61
2022/07/10 08:10:10;;;;;;;0.40;0.10;;;32.20;30.10;;;;;;5086650;28;20052;-61
2022/07/10 08:12:38;;;;;;;0.88;0.10;;;32.00;30.40;;;;;;5081323;28;20559;-59
2022/07/10 08:15:07;;;;;;;1.23;0.10;;;31.80;30.50;;;;;;5082879;28;20113;-62
2022/07/10 08:17:34;;;;;;;0.40;0.05;;;31.60;30.80;;;;;;5076441;28;20056;-60
2022/07/10 08:20:01;;;;;;;0.45;0.10;;;31.50;31.00;;;;;;5083481;28;20044;-61
2022/07/10 08:22:29;;;;;;;0.77;0.20;;;31.40;31.20;;;;;;5085399;28;20121;-51
2022/07/10 08:24:57;;;;;;;0.88;0.17;;;31.30;31.40;;;;;;5087922;28;20051;-50
2022/07/10 08:27:25;;;;;;;2.33;0.30;;;31.10;31.50;;;;;;5082783;28;20523;-48
2022/07/10 08:29:52;;;;;;;0.30;0.10;;;30.90;31.70;;;;;;5077779;28;20146;-49
2022/07/10 08:32:19;;;;;;;0.68;0.10;;;30.60;31.90;;;;;;5090328;28;20132;-49
2022/07/10 08:34:48;;;;;;;4.25;0.20;;;30.40;32.20;;;;;;5084057;28;20040;-53
2022/07/10 08:37:15;;;;;;;0.17;0.00;;;30.20;32.50;;;;;;5088433;28;20047;-50
2022/07/10 08:39:42;;;;;;;0.38;0.10;;;30.00;32.70;;;;;;5085306;28;20123;-53
2022/07/10 08:42:11;;;;;;;0.25;0.10;;;29.90;33.00;;;;;;5086442;28;20105;-53
2022/07/10 08:44:40;;;;;;;0.98;0.10;;;29.70;33.10;;;;;;5074123;28;20028;-53
2022/07/10 08:47:07;;;;;;;0.17;0.17;;;29.60;33.40;;;;;;5087615;28;20115;-53
2022/07/10 08:49:35;;;;;;;0.28;0.10;;;29.50;33.50;;;;;;5089325;28;20043;-52
2022/07/10 08:52:05;;;;;;;1.33;0.10;;;29.40;33.70;;;;;;5088370;28;20048;-53
2022/07/10 08:54:33;;;;;;;2.28;0.10;;;29.20;33.80;;;;;;5075416;28;20101;-53
2022/07/10 08:57:03;;;;;;;0.47;0.10;;;29.10;33.90;;;;;;5076605;28;20043;-52
2022/07/10 08:59:30;;;;;;;0.30;0.10;;;29.10;34.00;;;;;;5073522;28;20032;-54
2022/07/10 09:02:00;;;;;;;0.63;0.17;;;29.00;34.00;;;;;;5091412;28;20047;-53
2022/07/10 09:04:28;;;;;;;1.85;0.10;;;28.90;34.00;;;;;;5077797;28;20048;-54
2022/07/10 09:06:56;;;;;;;2.60;0.13;;;28.80;34.00;;;;;;5078208;28;20771;-53
2022/07/10 09:09:24;;;;;;;1.90;0.10;;;28.70;34.00;;;;;;5088320;28;20407;-50
2022/07/10 09:11:57;;;;;;;3.60;0.20;;;28.60;34.00;;;;;;5078904;28;20040;-49
2022/07/10 09:14:27;;;;;;;2.80;0.25;;;28.60;34.10;;;;;;5075680;28;20052;-52
2022/07/10 09:16:55;;;;;;;0.35;0.15;;;28.60;34.20;;;;;;5078138;28;20106;-54
2022/07/10 09:19:25;;;;;;;0.47;0.10;;;28.50;34.20;;;;;;5082032;28;20116;-52
2022/07/10 09:21:54;;;;;;;3.10;0.20;;;28.50;34.30;;;;;;5073734;28;20040;-53
2022/07/10 09:24:23;;;;;;;0.10;0.10;;;28.40;34.30;;;;;;5068578;28;20040;-54
2022/07/10 09:27:03;;;;;;;0.70;0.05;;;28.40;34.40;;;;;;5070743;28;20216;-52
2022/07/10 09:29:30;;;;;;;0.17;0.10;;;28.30;34.30;;;;;;5055653;28;20063;-50
2022/07/10 09:31:58;;;;;;;1.00;0.10;;;28.30;34.40;;;;;;5076738;28;20046;-49
2022/07/10 09:34:40;;;;;;;0.98;0.30;;;28.30;34.40;;;;;;5077036;28;20044;-50
2022/07/10 09:37:22;;;;;;;0.10;0.10;;;28.20;34.20;;;;;;5080083;28;20056;-51
2022/07/10 09:39:59;;;;;;;0.50;0.10;;;28.20;34.20;;;;;;5076155;28;20068;-51
2022/07/10 09:42:31;;;;;;;1.50;0.63;;;28.20;34.10;;;;;;5080544;28;20043;-52
2022/07/10 09:45:16;;;;;;;3.60;0.10;;;28.10;33.90;;;;;;5071742;28;20113;-52
2022/07/10 09:47:44;;;;;;;1.33;0.10;;;28.10;33.60;;;;;;5075660;28;20048;-54
2022/07/10 09:50:26;;;;;;;3.22;0.00;;;28.10;33.40;;;;;;5079380;28;20090;-51
2022/07/10 09:52:55;;;;;;;0.30;0.10;;;28.10;33.30;;;;;;5078465;28;20135;-52
2022/07/10 09:55:26;;;;;;;0.17;0.10;;;28.10;33.10;;;;;;5089019;28;20051;-50
2022/07/10 09:57:58;;;;;;;1.30;0.10;;;28.10;33.00;;;;;;5080261;28;20050;-50
2022/07/10 10:00:27;;;;;;;0.20;0.20;;;28.10;33.00;;;;;;5080451;28;20032;-48
2022/07/10 10:02:57;;;;;;;1.70;0.15;;;28.10;33.10;;;;;;5082934;28;20050;-49
2022/07/10 10:05:35;;;;;;;0.55;0.08;;;28.10;33.00;;;;;;5075598;28;20414;-48
2022/07/10 10:08:08;;;;;;;1.77;0.38;;;28.10;33.00;;;;;;5040162;28;20037;-54
2022/07/10 10:10:36;;;;;;;1.35;0.10;;;28.10;33.00;;;;;;5040337;28;20659;-52
2022/07/10 10:13:07;;;;;;;1.60;0.10;;;28.10;33.00;;;;;;5029953;28;20045;-52
2022/07/10 10:15:34;;;;;;;0.30;0.08;;;28.10;32.90;;;;;;5037671;28;20505;-50
2022/07/10 10:18:03;;;;;;;0.55;0.10;;;28.10;32.70;;;;;;5039044;28;20410;-52
2022/07/10 10:20:41;;;;;;;2.38;0.10;;;28.10;32.70;;;;;;5024628;28;20491;-49
2022/07/10 10:23:13;;;;;;;1.73;0.10;;;28.10;32.70;;;;;;5039817;28;20037;-50
2022/07/10 10:25:41;;;;;;;1.52;0.10;;;28.10;32.60;;;;;;5041231;28;20041;-50
2022/07/10 10:28:10;;;;;;;0.73;0.15;;;28.10;32.60;;;;;;5039367;28;20458;-52
2022/07/10 10:30:39;;;;;;;1.05;0.10;;;28.10;33.10;;;;;;5044171;28;20593;-49
2022/07/10 10:33:40;;;;;;;1.45;0.20;;;28.10;32.50;;;;;;5037538;28;20509;-50
2022/07/10 10:36:08;;;;;;;0.10;0.10;;;28.10;32.40;;;;;;5047543;28;20044;-52
2022/07/10 10:39:03;;;;;;;0.60;0.10;;;28.10;32.40;;;;;;5048405;28;20032;-52
2022/07/10 10:41:38;;;;;;;8.25;0.20;;;28.20;32.50;;;;;;5042623;28;20048;-59
2022/07/10 10:44:26;;;;;;;4.60;0.10;;;28.10;32.50;;;;;;5042333;28;20090;-56
2022/07/10 10:47:09;;;;;;;2.38;0.10;;;28.20;32.60;;;;;;5032657;28;20052;-56
2022/07/10 10:50:03;;;;;;;6.18;0.20;;;28.10;32.60;;;;;;5033569;28;20033;-52
2022/07/10 10:52:31;;;;;;;1.83;0.10;;;28.10;32.50;;;;;;4985220;28;20671;-53
2022/07/10 10:55:08;;;;;;;0.10;0.10;;;28.10;32.60;;;;;;4999258;28;20046;-53
2022/07/10 10:57:40;;;;;;;0.77;0.17;;;28.20;32.90;;;;;;4998412;28;20042;-52
2022/07/10 11:00:08;;;;;;;1.13;0.10;;;28.20;32.70;;;;;;4997067;28;20103;-50
2022/07/10 11:02:37;;;;;;;0.47;0.10;;;28.20;32.80;;;;;;4994304;28;20111;-49
2022/07/10 11:05:43;;;;;;;1.35;0.10;;;28.30;33.40;;;;;;4972967;28;20054;-53
2022/07/10 11:08:12;;;;;;;1.17;0.10;;;28.30;32.70;;;;;;4993815;28;20496;-49
2022/07/10 11:10:41;;;;;;;0.40;0.10;;;28.30;32.70;;;;;;4998101;28;20053;-55
2022/07/10 11:13:09;;;;;;;2.47;0.10;;;28.30;32.70;;;;;;4997577;28;20054;-52
2022/07/10 11:15:38;;;;;;;0.30;0.10;;;28.40;32.80;;;;;;4999428;28;20057;-52
2022/07/10 11:18:07;;;;;;;2.35;0.10;;;28.40;32.70;;;;;;4997397;28;20570;-53
2022/07/10 11:20:35;;;;;;;6.53;0.43;;;28.40;32.60;;;;;;4992284;28;20046;-65
2022/07/10 11:23:32;;;;;;;0.30;0.00;;;28.50;33.00;;;;;;5001588;28;20060;-54
2022/07/10 11:26:08;;;;;;;0.20;0.10;;;28.50;33.10;;;;;;4997808;28;20910;-56
2022/07/10 11:28:54;;;;;;;0.15;0.10;;;28.70;33.40;;;;;;5006908;28;20049;-55
2022/07/10 11:31:22;;;;;;;0.00;0.00;;;29.00;33.30;;;;;;5040930;28;20118;-53
2022/07/10 11:33:51;;;;;;;4.13;0.03;;;29.40;33.10;;;;;;5042585;28;20049;-60
2022/07/10 11:36:21;;;;;;;0.10;0.00;;;29.90;33.00;;;;;;5042439;28;20032;-55
2022/07/10 11:38:58;;;;;;;0.57;0.00;;;30.50;32.60;;;;;;5036865;28;20045;-56
2022/07/10 11:41:25;;;;;;;1.27;0.38;;;31.10;32.00;;;;;;5029073;28;20106;-64
2022/07/10 11:43:54;;;;;;;1.90;0.10;;;31.60;31.50;;;;;;5035063;28;20133;-64
2022/07/10 11:46:23;;;;;;;1.30;0.10;;;32.10;30.60;;;;;;5047194;28;20044;-66
2022/07/10 11:48:53;;;;;;;3.53;0.00;;;32.60;30.40;;;;;;5032308;28;20090;-63
2022/07/10 11:51:24;;;;;;;0.20;0.05;;;33.00;30.00;;;;;;5037549;28;20497;-66
2022/07/10 11:53:57;;;;;;;0.20;0.15;;;33.50;29.80;;;;;;5038475;28;20040;-66
2022/07/10 11:56:25;;;;;;;1.55;0.10;;;33.90;29.50;;;;;;5033921;28;20045;-65
2022/07/10 11:59:00;;;;;;;0.75;0.30;;;34.30;29.30;;;;;;5031899;28;20099;-65
2022/07/10 12:01:28;;;;;;;1.95;0.20;;;34.80;29.00;;;;;;5035006;28;20506;-64
2022/07/10 12:04:00;;;;;;;0.30;0.10;;;35.20;28.70;;;;;;5037665;28;20156;-65
2022/07/10 12:06:28;;;;;;;1.95;0.10;;;35.60;28.40;;;;;;5054096;28;20136;-62
2022/07/10 12:08:57;;;;;;;0.95;0.15;;;36.00;28.20;;;;;;5057051;28;20803;-60
2022/07/10 12:11:24;;;;;;;4.40;0.20;;;36.40;28.20;;;;;;5057127;28;20044;-63
2022/07/10 12:13:54;;;;;;;0.15;0.15;;;36.60;27.90;;;;;;5048647;28;20044;-58
2022/07/10 12:16:23;;;;;;;2.92;0.10;;;36.80;27.60;;;;;;5065899;28;20171;-60
2022/07/10 12:18:50;;;;;;;1.10;0.47;;;36.60;28.00;;;;;;5064243;28;20036;-61
2022/07/10 12:21:17;;;;;;;0.88;0.10;;;36.30;27.90;;;;;;5056639;28;20040;-61
2022/07/10 12:23:46;;;;;;;1.27;0.10;;;36.00;28.20;;;;;;5057790;28;20350;-62
2022/07/10 12:26:14;;;;;;;0.22;0.10;;;35.60;28.30;;;;;;5043860;28;20045;-61
2022/07/10 12:28:55;;;;;;;0.77;0.10;;;35.30;28.50;;;;;;5060936;28;20049;-60
2022/07/10 12:31:24;;;;;;;1.30;0.20;;;35.10;28.70;;;;;;5065157;28;20072;-59
2022/07/10 12:33:54;;;;;;;2.88;0.10;;;34.90;29.00;;;;;;5056384;28;20051;-59
2022/07/10 12:36:23;;;;;;;0.10;0.10;;;34.80;29.10;;;;;;5057950;28;20504;-58
2022/07/10 12:38:58;;;;;;;2.63;0.10;;;34.70;29.20;;;;;;5046600;28;20049;-61
2022/07/10 12:41:27;;;;;;;0.80;0.00;;;34.70;29.30;;;;;;5057371;28;20131;-62
2022/07/10 12:43:54;;;;;;;0.45;0.30;;;34.60;29.30;;;;;;5067319;28;20037;-62
2022/07/10 12:46:24;;;;;;;0.17;0.10;;;34.50;29.30;;;;;;5060189;28;20243;-58
2022/07/10 12:49:08;;;;;;;3.95;0.17;;;34.50;29.40;;;;;;5057459;28;20051;-59
2022/07/10 12:51:43;;;;;;;0.20;0.10;;;34.60;29.70;;;;;;5060835;28;20047;-58
2022/07/10 12:54:30;;;;;;;0.30;0.03;;;34.70;29.60;;;;;;5055672;28;20131;-58
2022/07/10 12:57:00;;;;;;;0.73;0.10;;;35.10;29.40;;;;;;5065868;28;20073;-60
2022/07/10 12:59:28;;;;;;;2.25;0.43;;;35.40;29.10;;;;;;5057896;28;20044;-59
2022/07/10 13:01:55;;;;;;;4.22;0.30;;;35.60;28.90;;;;;;5059153;28;20572;-60